Time;durP1;ratioP1;P1;durP2;ratioP2;P2;SDS_P1;SDS_P2;PMS_P1;PMS_P2;Temp;Humidity;BMP_temperature;BMP_pressure;BME280_temperature;BME280_humidity;BME280_pressure;Samples;Min_cycle;Max_cycle;Signal;HPM_P1;HPM_P2
2023/10/07 00:01:22;;;;;;;5.63;2.00;;;;;;;;;;4927918;28;20053;-78
2023/10/07 00:03:50;;;;;;;6.40;2.30;;;;;;;;;;4938822;28;20031;-78
2023/10/07 00:06:16;;;;;;;6.15;2.47;;;;;;;;;;4942573;28;20821;-77
2023/10/07 00:08:42;;;;;;;4.57;1.83;;;;;;;;;;4926174;28;20037;-77
2023/10/07 00:11:16;;;;;;;7.95;2.30;;;;;;;;;;4924199;28;20039;-77
2023/10/07 00:13:42;;;;;;;5.47;2.35;;;;;;;;;;4959160;28;21047;-77
2023/10/07 00:16:14;;;;;;;6.25;2.00;;;;;;;;;;4941497;28;20050;-77
2023/10/07 00:18:43;;;;;;;6.00;2.05;;;;;;;;;;4941768;28;20043;-78
2023/10/07 00:21:15;;;;;;;6.60;2.38;;;;;;;;;;4950281;28;20049;-78
2023/10/07 00:23:42;;;;;;;5.28;1.95;;;;;;;;;;4951306;28;21465;-77
2023/10/07 00:26:09;;;;;;;;;;;;;;;;;;4949440;28;20909;-77
2023/10/07 00:28:38;;;;;;;5.97;2.15;;;;;;;;;;4976162;28;19918;-78
2023/10/07 00:31:12;;;;;;;6.63;2.58;;;;;;;;;;4959390;28;20066;-77
2023/10/07 00:36:41;;;;;;;6.40;2.20;;;;;;;;;;4958806;28;20090;-76
2023/10/07 00:39:07;;;;;;;8.07;2.58;;;;;;;;;;4975322;28;20053;-77
2023/10/07 00:41:46;;;;;;;5.88;2.00;;;;;;;;;;4941430;28;20039;-77
2023/10/07 00:47:07;;;;;;;6.82;2.00;;;;;;;;;;4950709;28;20069;-77
2023/10/07 00:52:55;;;;;;;6.95;2.20;;;;;;;;;;4958344;28;20513;-77
2023/10/07 00:55:17;;;;;;;7.50;2.70;;;;;;;;;;4958527;28;20035;-77
2023/10/07 00:57:51;;;;;;;4.28;1.92;;;;;;;;;;4955334;28;20039;-77
2023/10/07 01:03:09;;;;;;;7.20;2.25;;;;;;;;;;4957839;28;20027;-77
2023/10/07 01:05:33;;;;;;;4.85;2.00;;;;;;;;;;4955344;28;20043;-77
2023/10/07 01:07:59;;;;;;;7.90;2.30;;;;;;;;;;4957993;28;20115;-78
2023/10/07 01:10:26;;;;;;;5.80;2.08;;;;;;;;;;4941025;28;20114;-79
2023/10/07 01:12:55;;;;;;;;;;;;;;;;;;4958657;28;20122;-78
2023/10/07 01:15:26;;;;;;;6.32;2.22;;;;;;;;;;4965371;28;19965;-78
2023/10/07 01:18:05;;;;;;;5.60;2.03;;;;;;;;;;4957651;28;20027;-78
2023/10/07 01:21:13;;;;;;;6.28;2.40;;;;;;;;;;4956360;28;20082;-78
2023/10/07 01:23:32;;;;;;;6.60;2.45;;;;;;;;;;4963785;28;20118;-78
2023/10/07 01:25:59;;;;;;;5.60;2.00;;;;;;;;;;4947816;28;20599;-78
2023/10/07 01:28:28;;;;;;;5.57;2.00;;;;;;;;;;4958696;28;20138;-77
2023/10/07 01:31:29;;;;;;;6.47;2.10;;;;;;;;;;4937611;28;20035;-77
2023/10/07 01:33:47;;;;;;;6.47;2.40;;;;;;;;;;4960727;28;20046;-78
2023/10/07 01:36:19;;;;;;;6.32;2.17;;;;;;;;;;4972733;28;20586;-77
2023/10/07 01:38:51;;;;;;;7.65;2.70;;;;;;;;;;4957361;28;20129;-77
2023/10/07 01:41:20;;;;;;;4.07;1.98;;;;;;;;;;4948871;28;20050;-77
2023/10/07 01:44:05;;;;;;;6.72;2.75;;;;;;;;;;4942589;28;20546;-77
2023/10/07 01:46:31;;;;;;;5.32;2.08;;;;;;;;;;4942575;28;20035;-77
2023/10/07 01:49:01;;;;;;;6.45;2.33;;;;;;;;;;4956989;28;20519;-77
2023/10/07 01:51:30;;;;;;;7.50;2.63;;;;;;;;;;4947103;28;20439;-78
2023/10/07 01:53:56;;;;;;;6.43;2.40;;;;;;;;;;4959023;28;20525;-78
2023/10/07 01:56:29;;;;;;;6.88;2.40;;;;;;;;;;4954851;28;20069;-78
2023/10/07 01:58:57;;;;;;;10.85;2.20;;;;;;;;;;4937944;28;20081;-78
2023/10/07 02:01:28;;;;;;;7.43;2.42;;;;;;;;;;4956489;28;20054;-78
2023/10/07 02:03:58;;;;;;;7.03;2.50;;;;;;;;;;4939947;28;20038;-78
2023/10/07 02:06:24;;;;;;;6.63;2.58;;;;;;;;;;4962916;28;20513;-78
2023/10/07 02:08:50;;;;;;;5.93;2.28;;;;;;;;;;4957951;28;20501;-78
2023/10/07 02:11:25;;;;;;;6.90;2.13;;;;;;;;;;4937544;28;20043;-78
2023/10/07 02:13:52;;;;;;;7.90;2.10;;;;;;;;;;4942434;28;20050;-78
2023/10/07 02:16:19;;;;;;;8.07;2.70;;;;;;;;;;4954924;28;20043;-75
2023/10/07 02:18:47;;;;;;;6.53;2.45;;;;;;;;;;4951100;28;20478;-76
2023/10/07 02:21:16;;;;;;;5.07;2.40;;;;;;;;;;4957147;28;20039;-76
2023/10/07 02:23:45;;;;;;;5.72;2.33;;;;;;;;;;4939514;28;20066;-76
2023/10/07 02:26:19;;;;;;;6.22;2.30;;;;;;;;;;4962451;28;20035;-76
2023/10/07 02:28:48;;;;;;;5.85;2.60;;;;;;;;;;4955668;28;20039;-77
2023/10/07 02:31:18;;;;;;;6.95;2.58;;;;;;;;;;4944814;28;20045;-76
2023/10/07 02:33:45;;;;;;;5.82;2.70;;;;;;;;;;4957641;28;20038;-77
2023/10/07 02:36:21;;;;;;;7.30;2.78;;;;;;;;;;4944781;28;20157;-77
2023/10/07 02:38:52;;;;;;;6.80;2.25;;;;;;;;;;4939395;28;20093;-77
2023/10/07 02:41:19;;;;;;;6.40;2.40;;;;;;;;;;4939328;28;20050;-77
2023/10/07 02:43:51;;;;;;;7.07;2.45;;;;;;;;;;4941341;28;20049;-78
2023/10/07 02:46:34;;;;;;;8.63;2.97;;;;;;;;;;4945255;28;20039;-77
2023/10/07 02:49:06;;;;;;;8.18;2.88;;;;;;;;;;4941306;28;20117;-77
2023/10/07 02:51:39;;;;;;;8.23;2.88;;;;;;;;;;4940314;28;20043;-78
2023/10/07 02:54:16;;;;;;;9.38;2.40;;;;;;;;;;4944084;28;20439;-78
2023/10/07 02:56:53;;;;;;;5.20;2.33;;;;;;;;;;4929925;28;20066;-78
2023/10/07 02:59:28;;;;;;;6.28;2.88;;;;;;;;;;4971772;28;20045;-77
2023/10/07 03:02:12;;;;;;;5.90;2.35;;;;;;;;;;4953179;28;20395;-77
2023/10/07 03:04:44;;;;;;;6.55;2.70;;;;;;;;;;4957650;28;20050;-77
2023/10/07 03:07:16;;;;;;;7.78;2.78;;;;;;;;;;4945810;28;20483;-78
2023/10/07 03:10:16;;;;;;;7.72;2.85;;;;;;;;;;4962698;28;20062;-78
2023/10/07 03:12:36;;;;;;;7.38;2.70;;;;;;;;;;4960415;28;20092;-77
2023/10/07 03:15:20;;;;;;;6.97;2.70;;;;;;;;;;4961852;28;20118;-77
2023/10/07 03:17:49;;;;;;;8.93;2.85;;;;;;;;;;4953707;28;20411;-77
2023/10/07 03:28:18;;;;;;;9.65;2.97;;;;;;;;;;4953581;28;20145;-77
2023/10/07 03:30:51;;;;;;;8.85;2.75;;;;;;;;;;4960569;28;20093;-78
2023/10/07 03:33:24;;;;;;;7.32;2.55;;;;;;;;;;4956694;28;20403;-77
2023/10/07 03:38:25;;;;;;;6.97;2.70;;;;;;;;;;4954451;28;20494;-78
2023/10/07 03:40:54;;;;;;;5.50;2.47;;;;;;;;;;4955532;28;20041;-78
2023/10/07 03:43:26;;;;;;;6.22;2.38;;;;;;;;;;4959185;28;20070;-78
2023/10/07 03:45:55;;;;;;;7.05;2.63;;;;;;;;;;4953232;28;20522;-78
2023/10/07 03:48:40;;;;;;;7.50;2.90;;;;;;;;;;4951201;28;20113;-78
2023/10/07 03:51:07;;;;;;;7.88;2.63;;;;;;;;;;4933531;28;20089;-78
2023/10/07 03:53:42;;;;;;;6.95;2.53;;;;;;;;;;4940160;28;20042;-78
2023/10/07 03:56:08;;;;;;;7.32;2.67;;;;;;;;;;4943953;28;20129;-78
2023/10/07 03:58:37;;;;;;;5.55;2.45;;;;;;;;;;4963337;28;20166;-78
2023/10/07 04:01:16;;;;;;;5.57;2.25;;;;;;;;;;4947786;28;20121;-77
2023/10/07 04:03:46;;;;;;;5.32;2.40;;;;;;;;;;4951394;28;20046;-78
2023/10/07 04:06:17;;;;;;;6.30;2.50;;;;;;;;;;4948360;28;20094;-77
2023/10/07 04:08:52;;;;;;;6.47;2.70;;;;;;;;;;4941036;28;20039;-78
2023/10/07 04:11:19;;;;;;;6.53;2.85;;;;;;;;;;4959452;28;20042;-78
2023/10/07 04:13:45;;;;;;;8.93;3.37;;;;;;;;;;4958634;28;20096;-77
2023/10/07 04:16:24;;;;;;;9.55;3.50;;;;;;;;;;4948370;28;20270;-77
2023/10/07 04:19:06;;;;;;;7.93;2.85;;;;;;;;;;4965101;28;20598;-77
2023/10/07 04:21:41;;;;;;;6.50;2.90;;;;;;;;;;4949411;28;20546;-77
2023/10/07 04:24:11;;;;;;;6.57;2.60;;;;;;;;;;4950950;28;20065;-78
2023/10/07 04:26:42;;;;;;;7.60;3.00;;;;;;;;;;4959735;28;20042;-78
2023/10/07 04:29:16;;;;;;;7.95;3.33;;;;;;;;;;4950266;28;20041;-78
2023/10/07 04:31:53;;;;;;;8.60;2.80;;;;;;;;;;4943049;28;20043;-78
2023/10/07 04:34:23;;;;;;;7.15;2.65;;;;;;;;;;4974769;28;20509;-78
2023/10/07 04:37:08;;;;;;;6.97;2.50;;;;;;;;;;4943713;28;20034;-77
2023/10/07 04:40:42;;;;;;;7.30;2.65;;;;;;;;;;4963122;28;20502;-78
2023/10/07 04:42:37;;;;;;;6.30;2.60;;;;;;;;;;4956359;28;20495;-77
2023/10/07 04:45:23;;;;;;;;;;;;;;;;;;4959591;28;20049;-77
2023/10/07 04:48:23;;;;;;;6.78;2.80;;;;;;;;;;4961163;28;19940;-77
2023/10/07 04:50:38;;;;;;;5.68;2.80;;;;;;;;;;4955701;28;20035;-78
2023/10/07 04:53:09;;;;;;;7.35;2.58;;;;;;;;;;4941804;28;20035;-78
2023/10/07 04:55:38;;;;;;;6.68;2.42;;;;;;;;;;4947363;28;20523;-78
2023/10/07 04:58:08;;;;;;;6.50;2.60;;;;;;;;;;4960439;28;20134;-78
2023/10/07 05:03:01;;;;;;;9.82;3.10;;;;;;;;;;4963674;28;20053;-77
2023/10/07 05:05:35;;;;;;;5.03;2.50;;;;;;;;;;4976001;28;20578;-78
2023/10/07 05:08:08;;;;;;;9.52;2.83;;;;;;;;;;4964514;28;20039;-78
2023/10/07 05:10:50;;;;;;;6.80;2.75;;;;;;;;;;4940558;28;20133;-78
2023/10/07 05:13:24;;;;;;;8.20;2.63;;;;;;;;;;4965128;28;20038;-77
2023/10/07 05:15:52;;;;;;;8.13;2.70;;;;;;;;;;4934948;28;20041;-77
2023/10/07 05:18:17;;;;;;;6.38;2.65;;;;;;;;;;4933760;28;20035;-78
2023/10/07 05:20:46;;;;;;;6.38;2.90;;;;;;;;;;4933701;28;20456;-77
2023/10/07 05:26:08;;;;;;;8.52;2.67;;;;;;;;;;4939576;28;20042;-77
2023/10/07 05:28:34;;;;;;;8.43;2.90;;;;;;;;;;4941854;28;20051;-78
2023/10/07 05:31:03;;;;;;;7.22;2.83;;;;;;;;;;4940636;28;20046;-77
2023/10/07 05:33:32;;;;;;;7.50;2.95;;;;;;;;;;4940733;28;20035;-78
2023/10/07 05:36:13;;;;;;;6.45;2.65;;;;;;;;;;4939575;28;20035;-77
2023/10/07 05:38:40;;;;;;;5.72;2.60;;;;;;;;;;4943522;28;20510;-77
2023/10/07 05:41:15;;;;;;;8.95;2.70;;;;;;;;;;4956536;28;20685;-78
2023/10/07 05:43:43;;;;;;;6.93;2.92;;;;;;;;;;4964249;28;20040;-77
2023/10/07 05:46:17;;;;;;;8.60;2.83;;;;;;;;;;4941840;28;20069;-78
2023/10/07 05:48:43;;;;;;;7.15;3.00;;;;;;;;;;4948782;28;20031;-77
2023/10/07 05:51:09;;;;;;;6.32;2.80;;;;;;;;;;4945135;28;20071;-77
2023/10/07 05:53:39;;;;;;;8.70;3.17;;;;;;;;;;4934676;28;20043;-77
2023/10/07 05:56:08;;;;;;;7.15;2.70;;;;;;;;;;4954936;28;20035;-77
2023/10/07 05:58:35;;;;;;;6.30;2.80;;;;;;;;;;4957005;28;20402;-77
2023/10/07 06:01:04;;;;;;;7.22;3.42;;;;;;;;;;4947855;28;20034;-77
2023/10/07 06:03:30;;;;;;;6.47;2.90;;;;;;;;;;4962603;28;20577;-78
2023/10/07 06:05:57;;;;;;;5.63;2.60;;;;;;;;;;4948328;28;20694;-77
2023/10/07 06:08:29;;;;;;;6.22;2.72;;;;;;;;;;4962051;28;20371;-78
2023/10/07 06:10:56;;;;;;;8.45;3.05;;;;;;;;;;4933284;28;20108;-78
2023/10/07 06:13:26;;;;;;;8.32;3.20;;;;;;;;;;4940233;28;20402;-78
2023/10/07 06:15:53;;;;;;;6.47;2.83;;;;;;;;;;4945034;28;20550;-78
2023/10/07 06:18:18;;;;;;;9.20;3.05;;;;;;;;;;4963844;28;20487;-77
2023/10/07 06:20:47;;;;;;;7.07;2.97;;;;;;;;;;4947269;28;20038;-77
2023/10/07 06:23:16;;;;;;;11.05;3.47;;;;;;;;;;4972652;28;20073;-78
2023/10/07 06:25:48;;;;;;;8.98;3.13;;;;;;;;;;4939516;28;20043;-77
2023/10/07 06:31:13;;;;;;;5.95;3.03;;;;;;;;;;4955019;28;20031;-77
2023/10/07 06:33:42;;;;;;;10.65;3.60;;;;;;;;;;4942467;28;20096;-78
2023/10/07 06:36:10;;;;;;;8.27;3.53;;;;;;;;;;4962762;28;20548;-77
2023/10/07 06:38:46;;;;;;;7.75;3.28;;;;;;;;;;4955392;28;20141;-78
2023/10/07 06:41:12;;;;;;;7.47;3.97;;;;;;;;;;4940132;28;20042;-78
2023/10/07 06:43:49;;;;;;;7.13;3.50;;;;;;;;;;4956731;28;20034;-78
2023/10/07 06:46:20;;;;;;;7.32;3.50;;;;;;;;;;4954454;28;20027;-77
2023/10/07 06:48:50;;;;;;;7.78;3.33;;;;;;;;;;4956255;28;20035;-77
2023/10/07 06:51:16;;;;;;;7.68;3.63;;;;;;;;;;4956493;28;20057;-77
2023/10/07 06:53:43;;;;;;;6.60;3.47;;;;;;;;;;4939587;28;20050;-76
2023/10/07 06:56:21;;;;;;;7.15;3.92;;;;;;;;;;4945391;28;20526;-77
2023/10/07 06:58:59;;;;;;;8.88;3.90;;;;;;;;;;4963200;28;20030;-77
2023/10/07 07:04:10;;;;;;;11.13;4.80;;;;;;;;;;4960984;28;20506;-76
2023/10/07 07:06:42;;;;;;;10.68;4.72;;;;;;;;;;4935785;28;20120;-79
2023/10/07 07:12:09;;;;;;;8.65;4.80;;;;;;;;;;4960105;28;20093;-76
2023/10/07 07:14:41;;;;;;;9.38;4.75;;;;;;;;;;4947213;28;20446;-75
2023/10/07 07:17:29;;;;;;;9.05;4.88;;;;;;;;;;4945197;28;20046;-76
2023/10/07 07:22:46;;;;;;;11.00;4.50;;;;;;;;;;4954863;28;20027;-77
2023/10/07 07:27:48;;;;;;;7.68;4.45;;;;;;;;;;4961146;28;20046;-76
2023/10/07 07:30:29;;;;;;;7.75;4.28;;;;;;;;;;4962956;28;20039;-76
2023/10/07 07:32:58;;;;;;;7.55;4.13;;;;;;;;;;4949484;28;20382;-77
2023/10/07 07:35:37;;;;;;;7.18;3.60;;;;;;;;;;4978311;28;20387;-77
2023/10/07 07:38:29;;;;;;;11.02;4.28;;;;;;;;;;4957779;28;20427;-76
2023/10/07 07:41:11;;;;;;;7.07;4.13;;;;;;;;;;4960877;28;20138;-75
2023/10/07 07:43:40;;;;;;;7.07;3.78;;;;;;;;;;4962285;28;20047;-73
2023/10/07 07:46:29;;;;;;;9.13;3.70;;;;;;;;;;4956893;28;20055;-74
2023/10/07 07:48:54;;;;;;;6.72;3.10;;;;;;;;;;4959020;28;20450;-75
2023/10/07 07:51:26;;;;;;;7.18;3.15;;;;;;;;;;4962095;28;20602;-73
2023/10/07 07:53:52;;;;;;;6.88;3.28;;;;;;;;;;4945045;28;20031;-75
2023/10/07 07:56:22;;;;;;;6.60;3.22;;;;;;;;;;4955228;28;20031;-74
2023/10/07 07:58:47;;;;;;;6.18;3.10;;;;;;;;;;4961566;28;20038;-74
2023/10/07 08:01:19;;;;;;;6.40;3.08;;;;;;;;;;4960801;28;20446;-75
2023/10/07 08:03:45;;;;;;;10.48;3.47;;;;;;;;;;4955615;28;20039;-73
2023/10/07 08:06:19;;;;;;;6.93;3.22;;;;;;;;;;4945438;28;20043;-75
2023/10/07 08:08:49;;;;;;;4.97;2.60;;;;;;;;;;4953770;28;20052;-74
2023/10/07 08:11:17;;;;;;;8.07;3.03;;;;;;;;;;4971061;28;20039;-75
2023/10/07 08:13:44;;;;;;;7.30;3.15;;;;;;;;;;4960710;28;20506;-74
2023/10/07 08:16:15;;;;;;;8.05;3.17;;;;;;;;;;4956039;28;20030;-75
2023/10/07 08:18:41;;;;;;;6.07;2.90;;;;;;;;;;4955120;28;20046;-75
2023/10/07 08:21:07;;;;;;;5.78;2.80;;;;;;;;;;4953768;28;20043;-75
2023/10/07 08:23:44;;;;;;;5.53;2.70;;;;;;;;;;4953427;28;20391;-75
2023/10/07 08:26:13;;;;;;;5.40;3.00;;;;;;;;;;4961747;28;20054;-74
2023/10/07 08:33:55;;;;;;;8.30;3.20;;;;;;;;;;4959091;28;20050;-76
2023/10/07 08:36:29;;;;;;;6.75;3.08;;;;;;;;;;4942644;28;20407;-76
2023/10/07 08:38:58;;;;;;;5.70;2.97;;;;;;;;;;4958335;28;20043;-76
2023/10/07 08:41:26;;;;;;;5.95;2.88;;;;;;;;;;4943559;28;20054;-76
2023/10/07 08:44:21;;;;;;;5.68;3.15;;;;;;;;;;4959234;28;20054;-77
2023/10/07 08:46:54;;;;;;;7.30;2.78;;;;;;;;;;4949851;28;20973;-76
2023/10/07 08:49:26;;;;;;;5.50;2.95;;;;;;;;;;4961308;28;20037;-76
2023/10/07 08:51:57;;;;;;;6.47;2.78;;;;;;;;;;4973578;28;20050;-76
2023/10/07 08:54:26;;;;;;;5.78;2.78;;;;;;;;;;4981141;28;20046;-76
2023/10/07 08:56:57;;;;;;;4.57;2.97;;;;;;;;;;4958087;28;20491;-76
2023/10/07 08:59:30;;;;;;;7.28;3.17;;;;;;;;;;4959059;28;20499;-77
2023/10/07 09:02:00;;;;;;;4.85;2.90;;;;;;;;;;4964031;28;20085;-76
2023/10/07 09:04:31;;;;;;;8.32;3.10;;;;;;;;;;4959483;28;20047;-76
2023/10/07 09:07:08;;;;;;;6.03;2.97;;;;;;;;;;4957722;28;20487;-76
2023/10/07 09:09:43;;;;;;;7.88;3.67;;;;;;;;;;4958233;28;20041;-77
2023/10/07 09:12:15;;;;;;;6.85;3.17;;;;;;;;;;4977714;28;20692;-75
2023/10/07 09:14:57;;;;;;;7.00;3.17;;;;;;;;;;4977255;28;20222;-76
2023/10/07 09:17:24;;;;;;;7.95;3.10;;;;;;;;;;4977274;28;20054;-76
2023/10/07 09:19:58;;;;;;;7.75;3.42;;;;;;;;;;4961350;28;20049;-75
2023/10/07 09:22:27;;;;;;;6.75;3.30;;;;;;;;;;4937653;28;20392;-75
2023/10/07 09:25:16;;;;;;;6.40;3.40;;;;;;;;;;4950484;28;20460;-76
2023/10/07 09:27:42;;;;;;;6.47;2.85;;;;;;;;;;4956714;28;20039;-75
2023/10/07 09:32:55;;;;;;;7.32;3.40;;;;;;;;;;4956202;28;20093;-75
2023/10/07 09:35:25;;;;;;;7.28;4.10;;;;;;;;;;4929052;28;20093;-76
2023/10/07 09:37:59;;;;;;;9.30;4.90;;;;;;;;;;4924327;28;20038;-74
2023/10/07 09:41:23;;;;;;;;;;;;;;;;;;;;;
2023/10/07 09:43:19;;;;;;;8.88;4.75;;;;;;;;;;4916855;28;21684;-75
2023/10/07 09:45:56;;;;;;;10.00;5.10;;;;;;;;;;4942730;28;20043;-76
2023/10/07 09:48:33;;;;;;;8.32;5.20;;;;;;;;;;4941472;28;20038;-76
2023/10/07 09:51:00;;;;;;;8.38;5.18;;;;;;;;;;4945184;28;20178;-75
2023/10/07 09:53:58;;;;;;;9.53;5.43;;;;;;;;;;4957728;28;20080;-74
2023/10/07 09:56:49;;;;;;;9.82;5.38;;;;;;;;;;4935767;28;20487;-76
2023/10/07 09:59:26;;;;;;;10.50;5.63;;;;;;;;;;4957547;28;20038;-76
2023/10/07 10:02:16;;;;;;;10.05;6.30;;;;;;;;;;4956577;28;20507;-76
2023/10/07 10:05:28;;;;;;;13.95;6.53;;;;;;;;;;4959911;28;20034;-75
2023/10/07 10:08:19;;;;;;;10.27;6.75;;;;;;;;;;4931849;28;20088;-75
2023/10/07 10:10:49;;;;;;;9.93;6.10;;;;;;;;;;4946726;28;20491;-75
2023/10/07 10:16:21;;;;;;;9.13;6.13;;;;;;;;;;4941217;28;20031;-76
2023/10/07 10:18:53;;;;;;;9.02;6.18;;;;;;;;;;4946634;28;20050;-75
2023/10/07 10:21:23;;;;;;;9.73;6.20;;;;;;;;;;4936412;28;20039;-75
2023/10/07 10:23:51;;;;;;;11.48;6.82;;;;;;;;;;4955535;28;20030;-74
2023/10/07 10:26:22;;;;;;;9.20;6.25;;;;;;;;;;4937753;28;20513;-75
2023/10/07 10:29:04;;;;;;;10.13;6.63;;;;;;;;;;4932552;28;20082;-74
2023/10/07 10:31:34;;;;;;;14.95;7.25;;;;;;;;;;4944292;28;20039;-76
2023/10/07 10:34:06;;;;;;;10.80;6.95;;;;;;;;;;4977125;28;20126;-77
2023/10/07 10:36:38;;;;;;;9.43;6.40;;;;;;;;;;4962347;28;20230;-76
2023/10/07 10:39:18;;;;;;;11.00;7.22;;;;;;;;;;4940996;28;20027;-75
2023/10/07 10:41:44;;;;;;;10.32;7.13;;;;;;;;;;4974905;28;20046;-74
2023/10/07 10:44:14;;;;;;;11.60;6.70;;;;;;;;;;4955959;28;20475;-75
2023/10/07 10:46:44;;;;;;;12.60;6.55;;;;;;;;;;4935432;28;20435;-76
2023/10/07 10:49:18;;;;;;;13.10;7.03;;;;;;;;;;4963593;28;20058;-76
2023/10/07 10:51:45;;;;;;;10.18;6.88;;;;;;;;;;4935515;28;20500;-76
2023/10/07 10:54:17;;;;;;;11.82;7.20;;;;;;;;;;4977052;28;20042;-75
2023/10/07 10:56:47;;;;;;;12.73;9.45;;;;;;;;;;4944874;28;20046;-76
2023/10/07 10:59:14;;;;;;;14.27;9.23;;;;;;;;;;4972159;28;20040;-76
2023/10/07 11:01:44;;;;;;;13.65;9.02;;;;;;;;;;4952924;28;20040;-75
2023/10/07 11:04:12;;;;;;;13.90;9.55;;;;;;;;;;4945492;28;20109;-76
2023/10/07 11:06:41;;;;;;;12.98;9.93;;;;;;;;;;4954793;28;20066;-76
2023/10/07 11:09:09;;;;;;;11.07;8.75;;;;;;;;;;4956477;28;20141;-75
2023/10/07 11:11:35;;;;;;;12.48;9.25;;;;;;;;;;4950306;28;20042;-75
2023/10/07 11:14:13;;;;;;;12.25;9.65;;;;;;;;;;4937320;28;20468;-76
2023/10/07 11:16:48;;;;;;;13.55;9.40;;;;;;;;;;4975420;28;20060;-77
2023/10/07 11:19:18;;;;;;;12.02;9.38;;;;;;;;;;4963293;28;20497;-76
2023/10/07 11:21:45;;;;;;;13.85;9.45;;;;;;;;;;4955443;28;20045;-76
2023/10/07 11:24:24;;;;;;;10.88;8.80;;;;;;;;;;4955991;28;20039;-74
2023/10/07 11:26:51;;;;;;;12.50;8.90;;;;;;;;;;4955099;28;20113;-75
2023/10/07 11:29:16;;;;;;;12.25;8.52;;;;;;;;;;4956870;28;20575;-75
2023/10/07 11:31:41;;;;;;;11.13;8.35;;;;;;;;;;4948717;28;20113;-75
2023/10/07 11:34:10;;;;;;;13.13;8.45;;;;;;;;;;4965773;28;20035;-76
2023/10/07 11:36:43;;;;;;;10.57;7.95;;;;;;;;;;4945270;28;20462;-76
2023/10/07 11:39:09;;;;;;;10.05;7.57;;;;;;;;;;4939684;28;20042;-76
2023/10/07 11:41:36;;;;;;;11.55;7.72;;;;;;;;;;4971069;28;20138;-77
2023/10/07 11:44:03;;;;;;;13.52;8.07;;;;;;;;;;4946573;28;20034;-75
2023/10/07 11:46:29;;;;;;;11.00;7.95;;;;;;;;;;4962245;28;20037;-76
2023/10/07 11:48:56;;;;;;;11.68;7.78;;;;;;;;;;4930267;28;20458;-76
2023/10/07 11:51:23;;;;;;;12.27;8.02;;;;;;;;;;4953981;28;20065;-75
2023/10/07 11:53:50;;;;;;;13.38;8.20;;;;;;;;;;4930707;28;20031;-75
2023/10/07 11:56:16;;;;;;;12.57;7.55;;;;;;;;;;4960477;28;20404;-75
2023/10/07 11:58:46;;;;;;;12.60;8.00;;;;;;;;;;4972650;28;20077;-76
2023/10/07 12:01:11;;;;;;;14.82;7.55;;;;;;;;;;4956385;28;20491;-76
2023/10/07 12:03:39;;;;;;;11.85;7.90;;;;;;;;;;4948764;28;20045;-76
2023/10/07 12:06:05;;;;;;;13.73;7.60;;;;;;;;;;4958429;28;20034;-76
2023/10/07 12:08:34;;;;;;;12.00;7.93;;;;;;;;;;4958186;28;20035;-76
2023/10/07 12:11:04;;;;;;;12.15;8.32;;;;;;;;;;4957371;28;20039;-75
2023/10/07 12:13:29;;;;;;;12.55;8.32;;;;;;;;;;4959793;28;20048;-77
2023/10/07 12:15:55;;;;;;;11.52;8.75;;;;;;;;;;4975737;28;20395;-76
2023/10/07 12:18:25;;;;;;;13.38;8.60;;;;;;;;;;4965527;28;20091;-76
2023/10/07 12:20:53;;;;;;;11.60;8.13;;;;;;;;;;4941485;28;20118;-76
2023/10/07 12:23:18;;;;;;;12.93;8.43;;;;;;;;;;4958661;28;20031;-77
2023/10/07 12:25:44;;;;;;;12.00;8.10;;;;;;;;;;4974400;28;20041;-75
2023/10/07 12:28:12;;;;;;;11.30;7.72;;;;;;;;;;4950650;28;20038;-76
2023/10/07 12:30:38;;;;;;;12.05;7.60;;;;;;;;;;4964111;28;20042;-76
2023/10/07 12:33:04;;;;;;;10.73;7.30;;;;;;;;;;4951413;28;20254;-76
2023/10/07 12:35:31;;;;;;;12.15;7.70;;;;;;;;;;4940285;28;20034;-75
2023/10/07 12:37:58;;;;;;;9.07;7.20;;;;;;;;;;4942394;28;20030;-76
2023/10/07 12:40:23;;;;;;;9.77;7.15;;;;;;;;;;4940124;28;20132;-77
2023/10/07 12:42:52;;;;;;;11.35;7.00;;;;;;;;;;4941750;28;20086;-76
2023/10/07 12:45:18;;;;;;;10.05;6.85;;;;;;;;;;4941808;28;20443;-76
2023/10/07 12:47:57;;;;;;;11.77;7.82;;;;;;;;;;4973445;28;20043;-75
2023/10/07 12:50:32;;;;;;;12.02;6.65;;;;;;;;;;4943179;28;20042;-76
2023/10/07 12:53:01;;;;;;;10.55;6.78;;;;;;;;;;4950973;28;20525;-75
2023/10/07 12:55:31;;;;;;;10.43;6.75;;;;;;;;;;4948688;28;20065;-75
2023/10/07 12:57:57;;;;;;;9.52;6.10;;;;;;;;;;4964529;28;20043;-76
2023/10/07 13:00:22;;;;;;;12.93;6.80;;;;;;;;;;4956258;28;20102;-75
2023/10/07 13:02:55;;;;;;;10.82;6.28;;;;;;;;;;4957395;28;20122;-75
2023/10/07 13:05:22;;;;;;;11.15;6.93;;;;;;;;;;4964892;28;20150;-75
2023/10/07 13:07:55;;;;;;;10.50;6.50;;;;;;;;;;4971722;28;20043;-75
2023/10/07 13:10:23;;;;;;;11.52;6.25;;;;;;;;;;4941372;28;20121;-77
2023/10/07 13:12:55;;;;;;;11.82;6.45;;;;;;;;;;4942506;28;20059;-75
2023/10/07 13:15:28;;;;;;;14.70;7.18;;;;;;;;;;4958429;28;20806;-76
2023/10/07 13:17:54;;;;;;;10.48;6.30;;;;;;;;;;4962803;28;20031;-77
2023/10/07 13:20:20;;;;;;;9.70;5.82;;;;;;;;;;4960799;28;20050;-76
2023/10/07 13:23:05;;;;;;;11.52;6.50;;;;;;;;;;4955358;28;20061;-75
2023/10/07 13:25:37;;;;;;;11.10;6.03;;;;;;;;;;4960669;28;20039;-77
2023/10/07 13:28:05;;;;;;;10.95;6.15;;;;;;;;;;4974165;28;20036;-76
2023/10/07 13:30:31;;;;;;;10.68;6.00;;;;;;;;;;4955303;28;20057;-77
2023/10/07 13:32:57;;;;;;;12.15;6.50;;;;;;;;;;4939500;28;20039;-76
2023/10/07 13:35:24;;;;;;;10.38;6.57;;;;;;;;;;4957965;28;20035;-77
2023/10/07 13:37:51;;;;;;;9.35;6.00;;;;;;;;;;4962911;28;20032;-75
2023/10/07 13:40:20;;;;;;;11.75;6.28;;;;;;;;;;4963366;28;20039;-74
2023/10/07 13:42:59;;;;;;;11.18;6.60;;;;;;;;;;4940399;28;20039;-76
2023/10/07 13:45:28;;;;;;;10.65;5.90;;;;;;;;;;4940415;28;20395;-75
2023/10/07 13:47:55;;;;;;;9.07;5.82;;;;;;;;;;4940617;28;20395;-75
2023/10/07 13:50:24;;;;;;;12.27;6.15;;;;;;;;;;4956934;28;20043;-76
2023/10/07 13:52:51;;;;;;;10.68;6.10;;;;;;;;;;4947290;28;20117;-76
2023/10/07 13:55:30;;;;;;;9.93;6.10;;;;;;;;;;4948600;28;20151;-77
2023/10/07 13:57:56;;;;;;;9.05;5.70;;;;;;;;;;4943670;28;20474;-77
2023/10/07 14:00:29;;;;;;;10.05;5.93;;;;;;;;;;4956780;28;20050;-76
2023/10/07 14:02:57;;;;;;;10.23;5.40;;;;;;;;;;4946282;28;20046;-76
2023/10/07 14:05:26;;;;;;;9.77;6.18;;;;;;;;;;4958035;28;20512;-76
2023/10/07 14:07:52;;;;;;;11.48;6.03;;;;;;;;;;4936787;28;20039;-76
2023/10/07 14:10:22;;;;;;;8.85;5.30;;;;;;;;;;4956595;28;20167;-76
2023/10/07 14:12:51;;;;;;;8.10;5.00;;;;;;;;;;4955618;28;20043;-76
2023/10/07 14:15:20;;;;;;;10.05;6.35;;;;;;;;;;4963580;28;20035;-78
2023/10/07 14:17:48;;;;;;;10.02;5.60;;;;;;;;;;4962272;28;20035;-77
2023/10/07 14:20:15;;;;;;;10.05;5.55;;;;;;;;;;4957117;28;20420;-77
2023/10/07 14:22:41;;;;;;;11.23;5.88;;;;;;;;;;4938313;28;20348;-77
2023/10/07 14:25:07;;;;;;;8.63;5.22;;;;;;;;;;4939169;28;20031;-77
2023/10/07 14:27:35;;;;;;;9.07;5.57;;;;;;;;;;4955112;28;20166;-77
2023/10/07 14:30:02;;;;;;;10.68;5.25;;;;;;;;;;4955564;28;20043;-79
2023/10/07 14:32:28;;;;;;;10.63;5.53;;;;;;;;;;4960880;28;20043;-78
2023/10/07 14:35:14;;;;;;;9.23;5.30;;;;;;;;;;4939351;28;20275;-79
2023/10/07 14:37:40;;;;;;;10.65;5.50;;;;;;;;;;4878876;29;20044;-76
2023/10/07 14:40:10;;;;;;;8.40;5.10;;;;;;;;;;4869904;29;20445;-77
2023/10/07 14:42:37;;;;;;;9.93;5.70;;;;;;;;;;4855207;29;20555;-76
2023/10/07 14:45:03;;;;;;;8.40;4.80;;;;;;;;;;4870571;29;20033;-77
2023/10/07 14:47:28;;;;;;;8.70;5.10;;;;;;;;;;4883789;29;20047;-77
2023/10/07 14:50:00;;;;;;;9.98;5.35;;;;;;;;;;4870023;29;20053;-77
2023/10/07 14:52:28;;;;;;;9.02;5.18;;;;;;;;;;4867910;29;20445;-77
2023/10/07 14:54:57;;;;;;;10.68;4.88;;;;;;;;;;4886177;29;20032;-76
2023/10/07 14:57:22;;;;;;;9.13;4.80;;;;;;;;;;4854817;29;20067;-77
2023/10/07 14:59:51;;;;;;;10.02;5.45;;;;;;;;;;4870758;29;21160;-77
2023/10/07 15:02:18;;;;;;;9.13;5.45;;;;;;;;;;4851545;29;20381;-76
2023/10/07 15:04:45;;;;;;;10.05;5.40;;;;;;;;;;4886352;29;20068;-77
2023/10/07 15:07:10;;;;;;;11.57;6.25;;;;;;;;;;4867446;29;20088;-76
2023/10/07 15:09:39;;;;;;;10.52;6.18;;;;;;;;;;4868846;29;20419;-76
2023/10/07 15:12:07;;;;;;;10.88;7.05;;;;;;;;;;4854077;29;20219;-77
2023/10/07 15:14:39;;;;;;;10.48;7.05;;;;;;;;;;4908959;28;20039;-78
2023/10/07 15:17:17;;;;;;;10.85;7.80;;;;;;;;;;4938196;28;20914;-77
2023/10/07 15:19:50;;;;;;;11.60;8.23;;;;;;;;;;4956185;28;20797;-76
2023/10/07 15:22:18;;;;;;;11.05;8.00;;;;;;;;;;4955738;28;20126;-77
2023/10/07 15:24:46;;;;;;;11.48;7.63;;;;;;;;;;4940167;28;20059;-76
2023/10/07 15:27:18;;;;;;;10.05;7.65;;;;;;;;;;4956585;28;20035;-76
2023/10/07 15:29:49;;;;;;;8.77;6.73;;;;;;;;;;4927395;28;20105;-77
2023/10/07 15:32:14;;;;;;;7.80;5.28;;;;;;;;;;4952456;28;20274;-77
2023/10/07 15:34:40;;;;;;;5.03;3.10;;;;;;;;;;4936849;28;20074;-77
2023/10/07 15:37:05;;;;;;;3.88;2.28;;;;;;;;;;4953616;28;20398;-77
2023/10/07 15:39:31;;;;;;;4.07;1.98;;;;;;;;;;4961690;28;20066;-77
2023/10/07 15:41:57;;;;;;;4.68;1.83;;;;;;;;;;4940775;28;20035;-76
2023/10/07 15:44:25;;;;;;;3.92;1.77;;;;;;;;;;4953624;28;20027;-78
2023/10/07 15:46:50;;;;;;;3.42;1.42;;;;;;;;;;4960495;28;20039;-78
2023/10/07 15:49:16;;;;;;;2.38;1.00;;;;;;;;;;4941428;28;20043;-77
2023/10/07 15:51:44;;;;;;;2.47;1.10;;;;;;;;;;4954174;28;20141;-77
2023/10/07 15:54:11;;;;;;;1.70;0.80;;;;;;;;;;4956681;28;20070;-77
2023/10/07 15:56:39;;;;;;;1.50;0.70;;;;;;;;;;4953634;28;20353;-77